Time;durP1;ratioP1;P1;durP2;ratioP2;P2;SDS_P1;SDS_P2;PMS_P1;PMS_P2;Temp;Humidity;BMP_temperature;BMP_pressure;BME280_temperature;BME280_humidity;BME280_pressure;Samples;Min_cycle;Max_cycle;Signal;HPM_P1;HPM_P2
2023/03/05 00:01:38;;;;;;;54.00;28.55;;;;;;;6.53;93.33;100607.09;4944505;28;20047;-68
2023/03/05 00:04:10;;;;;;;52.90;27.67;;;;;;;6.52;93.78;100597.31;4954435;29;20059;-68
2023/03/05 00:06:38;;;;;;;58.42;28.45;;;;;;;6.43;93.34;100605.91;4955107;29;20051;-67
2023/03/05 00:09:06;;;;;;;55.03;28.42;;;;;;;6.29;93.73;100604.63;4953654;29;20051;-68
2023/03/05 00:11:34;;;;;;;52.28;28.30;;;;;;;6.21;94.79;100605.88;4954974;29;20159;-67
2023/03/05 00:14:03;;;;;;;60.03;28.23;;;;;;;6.21;95.40;100592.28;4923602;29;20055;-67
2023/03/05 00:16:31;;;;;;;60.40;29.95;;;;;;;6.22;95.30;100596.66;4936036;29;20047;-67
2023/03/05 00:19:00;;;;;;;59.33;29.40;;;;;;;6.22;95.22;100593.94;4918730;29;20056;-67
2023/03/05 00:21:29;;;;;;;56.85;28.90;;;;;;;6.21;95.75;100591.47;4936075;29;20395;-67
2023/03/05 00:24:02;;;;;;;58.65;29.63;;;;;;;6.20;95.32;100587.91;4935129;29;20075;-67
2023/03/05 00:26:33;;;;;;;56.37;28.53;;;;;;;6.13;94.85;100592.72;4935049;29;20044;-67
2023/03/05 00:29:02;;;;;;;59.17;27.73;;;;;;;6.04;95.73;100590.44;4918680;29;20051;-67
2023/03/05 00:31:32;;;;;;;54.47;28.63;;;;;;;6.04;95.57;100595.03;4951619;29;20047;-67
2023/03/05 00:34:04;;;;;;;52.45;27.17;;;;;;;6.07;96.15;100583.69;4954359;29;20044;-67
2023/03/05 00:36:32;;;;;;;61.40;28.80;;;;;;;6.07;95.87;100588.28;4953107;28;20043;-67
2023/03/05 00:39:00;;;;;;;56.63;28.08;;;;;;;6.00;95.26;100588.41;4953926;29;20048;-67
2023/03/05 00:41:28;;;;;;;62.80;29.33;;;;;;;5.93;96.13;100585.88;4954329;29;20051;-67
2023/03/05 00:43:56;;;;;;;51.92;27.23;;;;;;;5.98;96.29;100585.13;4954069;29;20055;-67
2023/03/05 00:46:26;;;;;;;60.38;27.88;;;;;;;6.00;96.09;100586.53;4954781;29;20051;-67
2023/03/05 00:48:55;;;;;;;57.30;29.88;;;;;;;5.95;96.41;100585.66;4937325;29;20047;-68
2023/03/05 00:51:23;;;;;;;55.03;28.83;;;;;;;5.92;95.08;100581.53;4954480;29;20051;-67
2023/03/05 00:53:51;;;;;;;57.63;28.58;;;;;;;5.86;95.83;100585.25;4953886;29;20050;-67
2023/03/05 00:56:19;;;;;;;56.35;29.42;;;;;;;5.85;95.98;100578.97;4937555;29;20051;-67
2023/03/05 00:58:47;;;;;;;51.90;28.50;;;;;;;5.85;96.37;100580.84;4954504;29;20051;-67
2023/03/05 01:01:16;;;;;;;59.58;28.08;;;;;;;5.89;96.10;100582.00;4937515;29;20047;-67
2023/03/05 01:03:44;;;;;;;55.58;28.40;;;;;;;5.82;95.94;100576.75;4938774;29;20044;-67
2023/03/05 01:06:15;;;;;;;55.85;28.65;;;;;;;5.84;96.24;100581.94;4918363;29;20051;-67
2023/03/05 01:08:44;;;;;;;55.08;27.65;;;;;;;5.90;96.43;100578.22;4934372;29;20040;-67
2023/03/05 01:11:11;;;;;;;59.47;27.38;;;;;;;5.84;95.29;100585.47;4934789;29;20055;-67
2023/03/05 01:13:40;;;;;;;55.63;27.90;;;;;;;5.87;95.60;100581.44;4919000;29;20051;-67
2023/03/05 01:16:08;;;;;;;49.72;26.02;;;;;;;5.85;96.32;100587.13;4935085;29;20054;-67
2023/03/05 01:18:37;;;;;;;50.45;26.60;;;;;;;5.85;95.65;100576.25;4918065;29;20039;-68
2023/03/05 01:21:06;;;;;;;53.03;26.65;;;;;;;5.85;95.41;100581.69;4916956;29;20054;-67
2023/03/05 01:23:36;;;;;;;57.40;27.83;;;;;;;5.89;95.70;100571.97;4917742;29;20495;-67
2023/03/05 01:26:05;;;;;;;50.58;25.63;;;;;;;5.88;96.02;100566.78;4934965;29;20051;-67
2023/03/05 01:28:33;;;;;;;53.08;26.30;;;;;;;5.84;95.57;100561.03;4917986;29;20514;-67
2023/03/05 01:31:01;;;;;;;47.40;24.98;;;;;;;5.80;94.82;100568.03;4938305;29;20493;-66
2023/03/05 01:33:29;;;;;;;48.67;25.90;;;;;;;5.82;95.80;100570.50;4954073;29;20051;-68
2023/03/05 01:35:57;;;;;;;52.92;25.92;;;;;;;5.86;95.58;100556.16;4935965;29;20043;-67
2023/03/05 01:38:25;;;;;;;55.47;25.90;;;;;;;5.85;95.55;100559.97;4952558;29;20047;-67
2023/03/05 01:40:53;;;;;;;55.50;28.27;;;;;;;5.83;95.84;100555.84;4953922;29;20035;-67
2023/03/05 01:43:25;;;;;;;50.53;25.02;;;;;;;5.73;95.07;100556.53;4936573;29;20046;-67
2023/03/05 01:46:12;;;;;;;48.80;24.95;;;;;;;5.72;95.31;100558.41;4936780;29;20047;-67
2023/03/05 01:48:46;;;;;;;53.25;24.52;;;;;;;5.75;95.36;100543.50;4953529;28;20536;-68
2023/03/05 01:51:14;;;;;;;;;;;;;;;5.81;95.91;100544.41;4937183;29;20039;-67
2023/03/05 01:53:42;;;;;;;49.75;27.70;;;;;;;5.78;95.62;100543.03;4953769;29;19930;-67
2023/03/05 01:56:11;;;;;;;53.22;26.23;;;;;;;5.81;95.66;100545.22;4936181;29;20092;-67
2023/03/05 01:58:39;;;;;;;58.08;27.17;;;;;;;5.79;95.85;100544.66;4936575;29;20406;-67
2023/03/05 02:01:07;;;;;;;55.72;25.95;;;;;;;5.72;94.66;100539.38;4944370;29;20044;-67
2023/03/05 02:03:36;;;;;;;48.15;24.48;;;;;;;5.76;95.12;100540.56;4934422;29;20787;-68
2023/03/05 02:06:04;;;;;;;54.95;25.48;;;;;;;5.78;94.99;100541.09;4934331;29;20055;-67
2023/03/05 02:08:32;;;;;;;50.90;26.42;;;;;;;5.78;95.41;100538.41;4916883;29;20062;-67
2023/03/05 02:11:01;;;;;;;52.17;25.88;;;;;;;5.72;94.75;100544.81;4933926;29;20051;-68
2023/03/05 02:13:34;;;;;;;49.45;25.10;;;;;;;5.68;95.35;100549.13;4933420;29;20059;-67
2023/03/05 02:16:02;;;;;;;47.58;24.27;;;;;;;5.66;95.91;100540.38;4917443;29;20050;-67
2023/03/05 02:18:30;;;;;;;50.25;25.75;;;;;;;5.69;95.89;100539.06;4939126;29;20119;-67
2023/03/05 02:21:03;;;;;;;45.45;23.58;;;;;;;5.77;95.67;100544.09;4936596;29;20043;-68
2023/03/05 02:23:35;;;;;;;50.30;25.08;;;;;;;5.76;94.95;100539.72;4936061;29;20047;-67
2023/03/05 02:26:05;;;;;;;49.63;25.50;;;;;;;5.63;95.05;100538.97;4936363;29;20051;-68
2023/03/05 02:28:43;;;;;;;50.72;25.02;;;;;;;5.62;94.43;100531.91;4953446;29;20062;-68
2023/03/05 02:31:17;;;;;;;57.60;26.67;;;;;;;5.63;95.40;100522.69;4953194;29;20047;-67
2023/03/05 02:33:46;;;;;;;50.08;25.80;;;;;;;5.57;95.39;100525.59;4953156;29;20043;-67
2023/03/05 02:36:16;;;;;;;50.85;24.83;;;;;;;5.45;94.82;100526.50;4936286;29;20054;-67
2023/03/05 02:38:46;;;;;;;53.20;26.90;;;;;;;5.44;95.79;100526.75;4935311;29;20039;-67
2023/03/05 02:41:15;;;;;;;52.88;25.98;;;;;;;5.49;96.45;100521.41;4936174;29;20047;-67
2023/03/05 02:43:43;;;;;;;55.33;26.27;;;;;;;5.53;96.15;100519.00;4920643;29;20059;-68
2023/03/05 02:46:11;;;;;;;53.17;26.15;;;;;;;5.56;96.58;100527.47;4936187;29;20054;-67
2023/03/05 02:48:39;;;;;;;48.58;25.70;;;;;;;5.52;96.33;100518.19;4953437;29;20047;-67
2023/03/05 02:51:10;;;;;;;49.15;24.95;;;;;;;5.50;96.31;100514.91;4936251;29;20402;-67
2023/03/05 02:53:38;;;;;;;50.42;25.55;;;;;;;5.48;96.49;100512.41;4920592;29;20054;-67
2023/03/05 02:56:06;;;;;;;50.72;25.05;;;;;;;5.44;96.38;100514.00;4952983;29;20043;-67
2023/03/05 02:58:35;;;;;;;48.42;25.55;;;;;;;5.43;96.36;100497.97;4952884;29;20050;-67
2023/03/05 03:01:03;;;;;;;49.75;24.88;;;;;;;5.48;96.35;100503.47;4937066;29;20497;-67
2023/03/05 03:03:31;;;;;;;52.00;25.20;;;;;;;5.50;95.88;100504.88;4956659;29;20047;-67
2023/03/05 03:05:59;;;;;;;57.45;26.08;;;;;;;5.53;95.00;100511.69;4954718;29;20047;-67
2023/03/05 03:08:27;;;;;;;48.65;24.63;;;;;;;5.36;94.84;100507.09;4956279;29;20054;-67
2023/03/05 03:10:55;;;;;;;51.90;25.60;;;;;;;5.31;95.08;100507.00;4956184;29;20498;-67
2023/03/05 03:13:24;;;;;;;50.20;24.23;;;;;;;5.41;95.36;100500.09;4955018;29;20054;-67
2023/03/05 03:16:01;;;;;;;52.28;25.88;;;;;;;5.42;94.48;100509.91;4956310;29;20402;-67
2023/03/05 03:18:29;;;;;;;50.72;23.90;;;;;;;5.31;95.04;100498.88;4956310;29;20074;-67
2023/03/05 03:20:58;;;;;;;44.83;24.65;;;;;;;5.36;95.45;100508.97;4956366;29;20070;-67
2023/03/05 03:23:26;;;;;;;49.70;24.60;;;;;;;5.30;95.74;100508.06;4956149;29;20054;-68
2023/03/05 03:25:54;;;;;;;48.92;24.23;;;;;;;5.26;96.06;100504.19;4956277;29;20505;-67
2023/03/05 03:28:22;;;;;;;53.95;26.08;;;;;;;5.21;96.48;100506.81;4956137;29;20059;-67
2023/03/05 03:30:50;;;;;;;49.75;25.70;;;;;;;5.22;96.54;100503.03;4955571;29;20475;-67
2023/03/05 03:33:18;;;;;;;52.30;25.70;;;;;;;5.20;96.73;100497.03;4938677;29;20047;-67
2023/03/05 03:35:46;;;;;;;50.55;24.77;;;;;;;5.19;96.75;100498.94;4955545;29;20367;-68
2023/03/05 03:38:14;;;;;;;46.58;23.40;;;;;;;5.19;96.61;100492.69;4955868;29;20043;-68
2023/03/05 03:40:42;;;;;;;50.30;25.85;;;;;;;5.18;96.79;100491.06;4955713;29;20051;-67
2023/03/05 03:43:10;;;;;;;53.70;26.30;;;;;;;5.27;96.36;100489.56;4955889;29;20483;-67
2023/03/05 03:45:42;;;;;;;53.47;25.63;;;;;;;5.17;96.59;100490.22;4955519;29;20394;-67
2023/03/05 03:48:10;;;;;;;52.42;25.85;;;;;;;5.13;96.78;100488.25;4955946;29;20493;-67
2023/03/05 03:50:42;;;;;;;51.50;26.75;;;;;;;5.05;96.76;100490.31;4955042;29;20062;-66
2023/03/05 03:53:13;;;;;;;51.33;26.27;;;;;;;5.14;96.61;100498.03;4954499;29;20047;-67
2023/03/05 03:55:42;;;;;;;49.30;24.13;;;;;;;5.13;96.81;100488.25;4955743;29;20055;-67
2023/03/05 03:58:10;;;;;;;51.42;26.88;;;;;;;5.14;97.08;100485.31;4935398;29;20044;-67
2023/03/05 04:00:39;;;;;;;47.22;25.02;;;;;;;5.24;96.05;100496.31;4935694;29;20044;-67
2023/03/05 04:03:07;;;;;;;47.95;25.52;;;;;;;5.21;95.55;100485.13;4935347;29;20059;-67
2023/03/05 04:05:35;;;;;;;52.05;25.10;;;;;;;5.15;95.71;100488.81;4935201;29;20063;-67
2023/03/05 04:08:04;;;;;;;48.90;24.63;;;;;;;5.00;95.79;100484.78;4936224;29;20502;-67
2023/03/05 04:10:32;;;;;;;53.05;25.40;;;;;;;5.05;96.18;100495.72;4936371;29;20040;-67
2023/03/05 04:13:00;;;;;;;48.78;25.40;;;;;;;5.05;96.84;100487.59;4936024;29;20047;-67
2023/03/05 04:15:29;;;;;;;49.53;26.45;;;;;;;4.99;96.81;100488.56;4936202;29;20055;-67
2023/03/05 04:17:57;;;;;;;51.08;26.48;;;;;;;4.90;97.74;100477.31;4935983;29;20051;-67
2023/03/05 04:20:25;;;;;;;49.75;24.85;;;;;;;4.84;97.76;100479.09;4936089;29;20044;-67
2023/03/05 04:22:53;;;;;;;50.92;24.88;;;;;;;4.76;98.07;100479.50;4935932;29;20578;-67
2023/03/05 04:25:21;;;;;;;52.35;23.65;;;;;;;4.78;98.20;100477.34;4935880;29;20403;-67
2023/03/05 04:27:50;;;;;;;46.63;24.70;;;;;;;4.68;98.54;100474.44;4936075;29;20066;-68
2023/03/05 04:30:18;;;;;;;46.33;24.50;;;;;;;4.66;98.54;100471.16;4935721;29;20043;-67
2023/03/05 04:32:46;;;;;;;52.83;24.38;;;;;;;4.61;98.65;100471.06;4935707;29;20044;-67
2023/03/05 04:35:14;;;;;;;49.75;24.80;;;;;;;4.64;98.86;100471.41;4935474;29;20059;-66
2023/03/05 04:37:42;;;;;;;51.28;25.63;;;;;;;4.66;98.60;100471.16;4935490;29;20063;-67
2023/03/05 04:40:10;;;;;;;54.75;26.33;;;;;;;4.66;98.30;100469.28;4935499;29;20054;-67
2023/03/05 04:42:38;;;;;;;61.17;26.92;;;;;;;4.59;98.86;100470.50;4918399;29;20078;-67
2023/03/05 04:45:07;;;;;;;60.88;25.55;;;;;;;4.55;98.91;100470.16;4917721;29;20491;-67
2023/03/05 04:47:35;;;;;;;54.95;25.85;;;;;;;4.51;99.75;100464.41;4935489;29;20051;-68
2023/03/05 04:50:05;;;;;;;56.03;27.02;;;;;;;4.43;99.91;100471.03;4917920;29;20055;-68
2023/03/05 04:52:33;;;;;;;54.38;27.25;;;;;;;4.43;100.00;100472.91;4933756;29;20043;-67
2023/03/05 04:55:01;;;;;;;60.63;28.00;;;;;;;4.42;100.00;100474.81;4935687;29;20047;-67
2023/03/05 04:57:29;;;;;;;52.83;25.42;;;;;;;4.31;99.50;100472.97;4950697;29;20051;-67
2023/03/05 04:59:57;;;;;;;53.90;26.98;;;;;;;4.36;99.84;100466.81;4954487;29;20055;-67
2023/03/05 05:02:25;;;;;;;48.78;26.48;;;;;;;4.28;99.41;100468.84;4953441;29;20055;-68
2023/03/05 05:04:53;;;;;;;47.35;25.23;;;;;;;4.24;99.62;100470.38;4953785;29;20051;-67
2023/03/05 05:07:21;;;;;;;53.08;27.23;;;;;;;4.36;99.05;100473.06;4954363;29;20047;-67
2023/03/05 05:09:49;;;;;;;54.72;26.42;;;;;;;4.33;98.20;100470.00;4954444;29;20050;-68
2023/03/05 05:12:17;;;;;;;57.95;26.50;;;;;;;4.19;98.84;100470.28;4954472;29;20129;-67
2023/03/05 05:14:44;;;;;;;49.38;25.70;;;;;;;4.25;98.07;100472.03;4954306;29;20055;-67
2023/03/05 05:17:12;;;;;;;53.42;26.88;;;;;;;4.25;98.13;100466.59;4954210;29;20051;-67
2023/03/05 05:19:40;;;;;;;58.28;25.80;;;;;;;4.21;98.44;100464.63;4954105;29;20054;-68
2023/03/05 05:22:08;;;;;;;55.65;25.90;;;;;;;4.14;98.64;100467.44;4953964;29;20054;-66
2023/03/05 05:24:36;;;;;;;50.15;25.88;;;;;;;4.11;98.98;100467.94;4952540;28;20054;-67
2023/03/05 05:27:04;;;;;;;56.42;27.15;;;;;;;4.15;99.25;100472.63;4953808;29;20055;-67
2023/03/05 05:29:32;;;;;;;50.03;25.17;;;;;;;4.18;99.27;100471.34;4952644;29;20058;-67
2023/03/05 05:32:00;;;;;;;53.35;27.17;;;;;;;4.20;99.59;100471.91;4952678;29;20039;-67
2023/03/05 05:34:28;;;;;;;49.33;27.23;;;;;;;4.21;99.47;100473.56;4950292;29;20061;-67
2023/03/05 05:36:56;;;;;;;55.28;26.38;;;;;;;4.26;99.86;100473.66;4934840;29;20052;-67
2023/03/05 05:39:24;;;;;;;57.03;26.90;;;;;;;4.36;99.92;100474.94;4933722;29;20415;-67
2023/03/05 05:41:52;;;;;;;54.17;27.23;;;;;;;4.50;98.58;100470.88;4934522;29;20058;-67
2023/03/05 05:44:20;;;;;;;55.05;27.15;;;;;;;4.49;98.25;100463.81;4934617;29;20117;-67
2023/03/05 05:46:48;;;;;;;53.90;26.23;;;;;;;4.43;98.33;100475.63;4934712;29;20050;-68
2023/03/05 05:49:16;;;;;;;53.35;27.27;;;;;;;4.42;98.05;100471.25;4934713;29;20048;-67
2023/03/05 05:51:44;;;;;;;51.92;26.73;;;;;;;4.34;97.97;100466.25;4935801;29;20051;-66
2023/03/05 05:54:13;;;;;;;52.75;26.02;;;;;;;4.27;98.29;100475.34;4953485;29;20067;-67
2023/03/05 05:56:41;;;;;;;47.47;25.48;;;;;;;4.26;98.78;100478.28;4952772;29;20047;-67
2023/03/05 05:59:09;;;;;;;55.88;26.85;;;;;;;4.24;100.00;100481.22;4951438;29;20051;-67
2023/03/05 06:01:38;;;;;;;53.35;25.50;;;;;;;4.38;100.00;100489.06;4952368;29;20054;-77
2023/03/05 06:04:06;;;;;;;59.70;27.75;;;;;;;4.55;100.00;100478.28;4936388;29;20047;-67
2023/03/05 06:06:34;;;;;;;52.55;27.75;;;;;;;4.62;99.59;100486.25;4947582;29;20058;-67
2023/03/05 06:09:02;;;;;;;52.83;26.98;;;;;;;4.63;98.72;100487.91;4952154;28;20495;-67
2023/03/05 06:11:31;;;;;;;63.97;28.45;;;;;;;4.55;98.78;100489.13;4918997;29;20048;-67
2023/03/05 06:14:01;;;;;;;58.50;26.38;;;;;;;4.74;99.10;100487.03;4943560;28;20051;-66
2023/03/05 06:16:29;;;;;;;53.22;24.98;;;;;;;4.82;99.04;100500.22;4936877;29;20043;-67
2023/03/05 06:18:58;;;;;;;55.08;26.85;;;;;;;4.91;98.40;100487.09;4934262;29;20056;-67
2023/03/05 06:21:26;;;;;;;48.65;25.67;;;;;;;5.08;97.29;100503.38;4918063;29;20044;-66
2023/03/05 06:23:57;;;;;;;50.95;25.98;;;;;;;5.24;95.08;100498.22;4934122;29;20048;-67
2023/03/05 06:26:25;;;;;;;53.20;25.92;;;;;;;5.31;93.69;100501.56;4933265;29;20040;-67
2023/03/05 06:28:53;;;;;;;48.05;24.30;;;;;;;5.06;93.72;100510.94;4933466;29;20062;-66
2023/03/05 06:31:26;;;;;;;58.08;25.83;;;;;;;4.97;94.32;100506.97;4934277;29;20486;-67
2023/03/05 06:34:01;;;;;;;51.67;25.90;;;;;;;4.77;95.15;100508.25;4934231;29;20048;-68
2023/03/05 06:36:30;;;;;;;49.75;25.25;;;;;;;5.03;95.49;100511.41;4944493;28;20052;-68
2023/03/05 06:38:59;;;;;;;49.58;24.67;;;;;;;5.30;94.71;100518.94;4945927;28;20046;-68
2023/03/05 06:41:29;;;;;;;52.65;23.80;;;;;;;5.19;94.72;100519.81;4939632;29;20047;-67
2023/03/05 06:44:02;;;;;;;46.95;23.38;;;;;;;5.34;93.96;100514.63;4957045;29;20513;-68
2023/03/05 06:46:38;;;;;;;57.28;22.67;;;;;;;5.41;93.46;100524.50;4963714;28;20040;-68
2023/03/05 06:49:08;;;;;;;48.63;24.60;;;;;;;5.42;93.77;100521.56;4943218;29;20055;-68
2023/03/05 06:51:39;;;;;;;44.10;22.17;;;;;;;5.57;92.27;100518.25;4919902;29;20052;-68
2023/03/05 06:54:10;;;;;;;47.85;22.30;;;;;;;5.77;91.36;100522.38;4938632;29;20051;-68
2023/03/05 06:56:40;;;;;;;44.55;20.83;;;;;;;5.78;91.24;100516.66;4921661;29;20050;-68
2023/03/05 06:59:10;;;;;;;43.67;22.70;;;;;;;6.03;90.38;100518.13;4937596;29;20051;-68
2023/03/05 07:01:38;;;;;;;42.22;20.88;;;;;;;6.11;89.61;100518.78;4920308;29;20399;-68
2023/03/05 07:04:07;;;;;;;45.85;21.95;;;;;;;6.36;89.02;100515.56;4949783;29;20047;-68
2023/03/05 07:06:37;;;;;;;39.28;21.50;;;;;;;6.55;87.67;100523.41;4937389;29;20040;-68
2023/03/05 07:09:06;;;;;;;51.58;24.75;;;;;;;6.71;87.19;100511.59;4942826;28;20043;-68
2023/03/05 07:11:35;;;;;;;50.30;24.80;;;;;;;7.08;85.00;100520.13;4954447;29;20403;-68
2023/03/05 07:14:03;;;;;;;42.42;22.20;;;;;;;6.92;85.62;100516.44;4955784;29;20047;-67
2023/03/05 07:16:33;;;;;;;49.45;20.90;;;;;;;7.10;84.86;100513.34;4955898;29;20058;-68
2023/03/05 07:19:04;;;;;;;41.00;19.60;;;;;;;7.40;83.14;100516.59;4955103;29;20043;-68
2023/03/05 07:21:33;;;;;;;41.05;21.38;;;;;;;7.30;82.75;100517.34;4937885;28;20395;-67
2023/03/05 07:24:05;;;;;;;40.92;20.77;;;;;;;7.19;83.01;100519.13;4936527;29;20052;-68
2023/03/05 07:26:33;;;;;;;38.72;18.33;;;;;;;7.55;82.25;100520.50;4936633;29;20048;-68
2023/03/05 07:29:02;;;;;;;38.45;18.27;;;;;;;7.62;81.44;100512.97;4940410;28;20048;-67
2023/03/05 07:31:30;;;;;;;38.80;17.75;;;;;;;7.65;79.64;100515.16;4943922;29;20043;-67
2023/03/05 07:34:01;;;;;;;37.55;18.67;;;;;;;7.99;78.67;100519.44;4936923;28;20054;-67
2023/03/05 07:36:29;;;;;;;40.45;18.77;;;;;;;8.32;76.56;100518.25;4975246;28;20053;-68
2023/03/05 07:38:57;;;;;;;36.20;16.80;;;;;;;8.73;75.37;100514.03;4946990;28;20050;-68
2023/03/05 07:41:25;;;;;;;37.15;18.10;;;;;;;8.91;74.79;100517.34;4936934;28;20051;-68
2023/03/05 07:43:54;;;;;;;33.38;15.65;;;;;;;9.00;74.32;100513.03;4942017;28;20043;-68
2023/03/05 07:46:28;;;;;;;35.03;17.27;;;;;;;8.97;74.26;100517.09;4972436;28;20054;-68
2023/03/05 07:48:56;;;;;;;;;;;;;;;9.20;74.38;100517.69;4950105;29;20051;-70
2023/03/05 07:51:25;;;;;;;35.05;16.95;;;;;;;9.67;72.36;100520.38;4919786;29;19926;-70
2023/03/05 07:53:56;;;;;;;37.40;18.15;;;;;;;9.57;73.12;100526.69;4950540;29;20048;-69
2023/03/05 07:56:30;;;;;;;35.47;18.55;;;;;;;9.73;72.77;100513.00;4955801;29;20044;-70
2023/03/05 07:58:59;;;;;;;37.00;19.52;;;;;;;9.77;72.54;100516.81;4951075;28;20689;-65
2023/03/05 08:01:28;;;;;;;37.30;18.95;;;;;;;9.95;72.99;100521.72;4951484;28;20062;-65
2023/03/05 08:03:56;;;;;;;38.58;20.08;;;;;;;10.09;72.40;100521.13;4943489;28;20086;-65
2023/03/05 08:06:24;;;;;;;43.40;19.45;;;;;;;9.91;72.40;100515.16;4919808;29;20058;-65
2023/03/05 08:08:52;;;;;;;38.85;18.80;;;;;;;10.40;71.22;100509.25;4936171;29;20051;-67
2023/03/05 08:11:20;;;;;;;37.75;20.17;;;;;;;10.59;71.14;100518.50;4947962;29;20394;-67
2023/03/05 08:13:50;;;;;;;40.13;18.75;;;;;;;11.09;70.59;100514.88;4954662;28;20083;-67
2023/03/05 08:16:20;;;;;;;37.83;19.60;;;;;;;11.18;67.29;100515.09;4935946;29;20411;-67
2023/03/05 08:18:48;;;;;;;37.60;19.02;;;;;;;11.58;67.36;100506.03;4935131;29;20423;-67
2023/03/05 08:21:21;;;;;;;37.70;19.10;;;;;;;11.56;65.19;100506.31;4936300;29;20067;-68
2023/03/05 08:23:49;;;;;;;36.38;18.42;;;;;;;11.99;65.52;100502.03;4902569;29;20059;-68
2023/03/05 08:26:20;;;;;;;37.28;20.90;;;;;;;11.56;66.00;100490.69;4938973;28;20055;-65
2023/03/05 08:28:49;;;;;;;36.55;19.45;;;;;;;11.51;65.19;100496.22;4946925;28;20078;-66
2023/03/05 08:31:20;;;;;;;40.28;19.08;;;;;;;11.82;66.10;100495.91;4904927;29;20043;-65
2023/03/05 08:33:50;;;;;;;41.10;19.20;;;;;;;12.00;65.57;100493.50;4904934;29;20076;-65
2023/03/05 08:36:19;;;;;;;40.35;19.85;;;;;;;12.08;64.31;100494.84;4932376;29;20043;-65
2023/03/05 08:38:47;;;;;;;34.45;19.15;;;;;;;12.42;62.40;100493.84;4954352;29;20062;-67
2023/03/05 08:41:17;;;;;;;38.17;20.35;;;;;;;12.10;63.92;100487.13;4950875;29;20050;-65
2023/03/05 08:43:45;;;;;;;39.03;19.60;;;;;;;12.11;63.85;100488.75;4930727;29;20047;-65
2023/03/05 08:46:14;;;;;;;39.78;19.52;;;;;;;12.26;64.14;100484.19;4923360;29;20047;-65
2023/03/05 08:48:43;;;;;;;39.53;19.60;;;;;;;12.25;63.57;100493.53;4952348;28;20051;-65
2023/03/05 08:51:17;;;;;;;36.30;21.13;;;;;;;12.13;63.07;100489.28;4935536;29;20371;-66
2023/03/05 08:53:46;;;;;;;37.33;19.85;;;;;;;12.20;64.70;100491.66;4915233;29;20043;-66
2023/03/05 08:56:14;;;;;;;39.00;20.40;;;;;;;12.09;65.32;100497.25;4960784;28;20394;-66
2023/03/05 08:58:43;;;;;;;40.08;21.35;;;;;;;12.36;64.34;100500.50;4948180;28;20101;-66
2023/03/05 09:01:12;;;;;;;42.80;21.20;;;;;;;12.22;63.45;100500.44;4942803;29;20055;-66
2023/03/05 09:03:40;;;;;;;36.13;19.00;;;;;;;12.16;63.90;100496.09;4947156;28;20049;-65
2023/03/05 09:06:11;;;;;;;38.67;19.92;;;;;;;12.35;65.07;100494.22;4945842;28;20051;-66
2023/03/05 09:08:39;;;;;;;41.13;21.90;;;;;;;12.50;63.35;100506.09;4954039;28;20075;-65
2023/03/05 09:11:10;;;;;;;42.67;21.70;;;;;;;12.48;63.28;100500.09;4949568;29;20058;-65
2023/03/05 09:13:38;;;;;;;36.80;19.67;;;;;;;12.77;62.75;100496.41;4948549;29;20051;-66
2023/03/05 09:16:09;;;;;;;40.28;20.20;;;;;;;12.81;62.46;100499.38;4944081;29;20043;-66
2023/03/05 09:18:39;;;;;;;42.72;21.15;;;;;;;12.09;66.27;100497.25;4947015;29;20039;-65
2023/03/05 09:21:12;;;;;;;38.63;20.25;;;;;;;12.66;64.35;100494.94;4950205;28;20473;-65
2023/03/05 09:23:41;;;;;;;39.65;21.17;;;;;;;12.74;63.33;100506.06;4949394;29;20434;-65
2023/03/05 09:26:11;;;;;;;39.15;21.27;;;;;;;12.77;64.13;100490.94;4970571;28;20497;-65
2023/03/05 09:28:39;;;;;;;40.28;21.85;;;;;;;12.73;65.38;100492.63;4955214;28;20062;-65
2023/03/05 09:31:09;;;;;;;40.78;21.08;;;;;;;13.14;64.11;100492.00;4928096;29;20047;-66
2023/03/05 09:33:38;;;;;;;42.83;21.58;;;;;;;13.31;62.97;100485.16;4938441;29;20056;-65
2023/03/05 09:36:26;;;;;;;44.60;21.90;;;;;;;13.44;62.86;100476.09;4945888;28;20046;-66
2023/03/05 09:38:54;;;;;;;39.88;21.35;;;;;;;13.39;61.59;100492.69;4950787;28;20051;-65
2023/03/05 09:42:02;;;;;;;39.30;21.17;;;;;;;13.51;60.80;100483.19;4934475;29;20054;-65
2023/03/05 09:44:58;;;;;;;41.17;21.40;;;;;;;13.20;63.10;100478.19;4950074;29;20043;-65
2023/03/05 09:47:31;;;;;;;41.88;20.77;;;;;;;13.62;61.26;100479.13;4953250;28;20062;-65
2023/03/05 09:50:17;;;;;;;39.15;21.52;;;;;;;13.59;61.03;100463.22;4950021;29;20062;-65
2023/03/05 09:52:58;;;;;;;37.75;19.33;;;;;;;13.68;59.46;100472.41;4951723;29;20043;-65
2023/03/05 09:55:43;;;;;;;39.30;20.65;;;;;;;13.74;60.01;100470.38;4952503;29;20414;-66
2023/03/05 09:58:29;;;;;;;37.75;19.17;;;;;;;13.82;59.03;100471.59;4952405;29;20062;-66
2023/03/05 10:01:01;;;;;;;42.33;20.40;;;;;;;13.95;59.73;100470.81;4951512;29;20815;-66
2023/03/05 10:03:41;;;;;;;43.08;20.65;;;;;;;13.60;60.23;100466.81;4947680;28;20056;-66
2023/03/05 10:06:22;;;;;;;37.10;19.23;;;;;;;13.74;61.26;100458.56;4911118;29;20054;-65
2023/03/05 10:09:08;;;;;;;36.08;19.30;;;;;;;14.01;62.10;100460.50;4915911;28;20051;-65
2023/03/05 10:11:57;;;;;;;40.90;21.48;;;;;;;13.72;60.54;100456.13;4956152;29;20047;-66
2023/03/05 10:14:29;;;;;;;37.63;21.33;;;;;;;13.76;60.33;100453.56;4956117;29;20046;-65
2023/03/05 10:17:19;;;;;;;41.47;21.48;;;;;;;14.11;58.70;100456.72;4948523;28;20048;-67
2023/03/05 10:20:11;;;;;;;43.47;20.98;;;;;;;14.51;59.58;100451.47;4938352;29;20055;-67
2023/03/05 10:23:38;;;;;;;35.63;19.00;;;;;;;14.23;60.19;100447.97;4936765;29;20067;-66
2023/03/05 10:26:35;;;;;;;44.22;24.60;;;;;;;14.37;57.78;100448.75;4877902;29;20056;-67
2023/03/05 10:29:12;;;;;;;37.42;19.33;;;;;;;14.64;57.63;100440.72;4938126;29;20078;-66
2023/03/05 10:32:03;;;;;;;45.72;20.88;;;;;;;14.69;56.18;100440.59;4954817;28;20046;-67
2023/03/05 10:35:00;;;;;;;45.63;22.60;;;;;;;14.81;58.15;100439.28;4940070;29;20043;-67
2023/03/05 10:37:47;;;;;;;44.05;22.20;;;;;;;15.19;57.02;100436.13;4936688;29;20402;-67
2023/03/05 10:40:28;;;;;;;35.83;20.27;;;;;;;15.39;54.95;100436.75;4937083;29;20051;-67
2023/03/05 10:43:14;;;;;;;42.55;23.10;;;;;;;14.96;58.17;100430.63;4937735;29;20064;-67
2023/03/05 10:45:45;;;;;;;46.13;23.42;;;;;;;14.76;58.95;100421.72;4936561;29;20051;-67
2023/03/05 10:48:42;;;;;;;40.25;21.80;;;;;;;15.10;56.21;100424.25;4920421;29;20047;-66
2023/03/05 10:51:21;;;;;;;44.30;24.13;;;;;;;15.09;57.94;100417.91;4943624;29;20081;-66
2023/03/05 10:53:55;;;;;;;43.03;23.58;;;;;;;15.27;57.07;100412.50;4956665;29;20051;-67
2023/03/05 10:56:26;;;;;;;39.30;20.00;;;;;;;15.45;53.66;100405.16;4954960;29;20383;-67
2023/03/05 10:58:54;;;;;;;42.08;21.40;;;;;;;15.87;52.40;100412.28;4938361;29;20066;-67
2023/03/05 11:01:26;;;;;;;43.75;21.55;;;;;;;15.97;52.53;100412.00;4941421;28;20035;-66
2023/03/05 11:04:00;;;;;;;37.92;21.50;;;;;;;15.83;52.52;100406.56;4964276;28;20055;-66
2023/03/05 11:06:44;;;;;;;41.83;22.27;;;;;;;16.01;53.20;100407.47;4928352;29;20055;-67
2023/03/05 11:09:28;;;;;;;38.05;19.95;;;;;;;15.48;53.71;100401.72;4954466;29;20063;-67
2023/03/05 11:12:18;;;;;;;39.78;20.30;;;;;;;15.57;51.69;100401.78;4950011;29;20395;-66
2023/03/05 11:15:03;;;;;;;41.95;20.85;;;;;;;15.52;53.77;100402.72;4936239;29;20063;-67
2023/03/05 11:17:37;;;;;;;39.42;21.13;;;;;;;15.95;52.04;100390.25;4948096;28;20451;-67
2023/03/05 11:20:26;;;;;;;39.80;20.10;;;;;;;15.91;53.80;100388.41;4950478;29;20052;-66
2023/03/05 11:23:04;;;;;;;42.35;21.25;;;;;;;15.53;51.84;100385.06;4935698;29;20062;-66
2023/03/05 11:25:34;;;;;;;43.20;19.92;;;;;;;15.79;52.23;100384.31;4936299;29;20503;-67
2023/03/05 11:28:02;;;;;;;36.42;19.90;;;;;;;16.20;51.93;100378.75;4935795;29;20043;-67
2023/03/05 11:30:33;;;;;;;34.67;19.00;;;;;;;15.95;51.57;100370.94;4951050;29;20055;-67
2023/03/05 11:33:21;;;;;;;35.42;18.75;;;;;;;15.89;51.42;100377.69;4955272;29;20051;-66